sensor_id;sensor_type;location;lat;lon;timestamp;temperature;humidity
69823;SHT31;57119;52.516;13.508;2023-03-04T07:52:18;5.01;99.99
69823;SHT31;57119;52.516;13.508;2023-03-04T07:54:43;5.04;99.99
69823;SHT31;57119;52.516;13.508;2023-03-04T07:57:08;5.05;99.99
69823;SHT31;57119;52.516;13.508;2023-03-04T07:59:34;5.12;99.99
69823;SHT31;57119;52.516;13.508;2023-03-04T08:01:59;5.22;99.99
69823;SHT31;57119;52.516;13.508;2023-03-04T08:04:25;5.28;99.99
69823;SHT31;57119;52.516;13.508;2023-03-04T08:06:50;5.36;99.99
69823;SHT31;57119;52.516;13.508;2023-03-04T08:09:15;5.43;99.99
69823;SHT31;57119;52.516;13.508;2023-03-04T08:11:41;5.56;99.71
69823;SHT31;57119;52.516;13.508;2023-03-04T08:14:07;5.66;98.06
69823;SHT31;57119;52.516;13.508;2023-03-04T08:16:33;5.65;98.10
69823;SHT31;57119;52.516;13.508;2023-03-04T08:19:00;5.52;97.94
69823;SHT31;57119;52.516;13.508;2023-03-04T08:21:27;5.59;98.13
69823;SHT31;57119;52.516;13.508;2023-03-04T08:23:53;5.66;97.76
69823;SHT31;57119;52.516;13.508;2023-03-04T08:26:30;5.59;97.41
69823;SHT31;57119;52.516;13.508;2023-03-04T08:28:56;5.58;97.77
69823;SHT31;57119;52.516;13.508;2023-03-04T08:31:22;5.49;97.00
69823;SHT31;57119;52.516;13.508;2023-03-04T08:33:47;5.48;97.86
69823;SHT31;57119;52.516;13.508;2023-03-04T08:36:14;5.45;97.52
69823;SHT31;57119;52.516;13.508;2023-03-04T08:38:39;5.50;97.39
69823;SHT31;57119;52.516;13.508;2023-03-04T08:41:05;5.43;97.86
69823;SHT31;57119;52.516;13.508;2023-03-04T08:43:32;5.46;97.17
69823;SHT31;57119;52.516;13.508;2023-03-04T08:45:58;5.41;96.32
69823;SHT31;57119;52.516;13.508;2023-03-04T08:48:23;5.49;96.86
69823;SHT31;57119;52.516;13.508;2023-03-04T08:50:49;5.55;96.38
69823;SHT31;57119;52.516;13.508;2023-03-04T08:53:16;5.71;94.92
69823;SHT31;57119;52.516;13.508;2023-03-04T08:55:42;5.71;94.24
69823;SHT31;57119;52.516;13.508;2023-03-04T08:58:09;5.76;93.10
69823;SHT31;57119;52.516;13.508;2023-03-04T09:00:36;5.79;93.42
69823;SHT31;57119;52.516;13.508;2023-03-04T09:03:03;5.90;92.62
69823;SHT31;57119;52.516;13.508;2023-03-04T09:05:29;5.94;92.00
69823;SHT31;57119;52.516;13.508;2023-03-04T09:07:54;5.97;91.36
69823;SHT31;57119;52.516;13.508;2023-03-04T09:10:20;6.07;90.51
69823;SHT31;57119;52.516;13.508;2023-03-04T09:12:46;6.14;90.66
69823;SHT31;57119;52.516;13.508;2023-03-04T09:15:11;6.27;89.80
69823;SHT31;57119;52.516;13.508;2023-03-04T09:17:38;6.22;89.39
69823;SHT31;57119;52.516;13.508;2023-03-04T09:20:05;6.28;89.48
69823;SHT31;57119;52.516;13.508;2023-03-04T09:22:32;6.31;88.32
69823;SHT31;57119;52.516;13.508;2023-03-04T09:24:57;6.41;87.95
69823;SHT31;57119;52.516;13.508;2023-03-04T09:27:23;6.45;87.53
69823;SHT31;57119;52.516;13.508;2023-03-04T09:29:48;6.42;86.40
69823;SHT31;57119;52.516;13.508;2023-03-04T09:32:14;6.46;86.28
69823;SHT31;57119;52.516;13.508;2023-03-04T09:34:40;6.56;85.09
69823;SHT31;57119;52.516;13.508;2023-03-04T09:37:05;6.66;84.15
69823;SHT31;57119;52.516;13.508;2023-03-04T09:39:30;6.69;84.00
69823;SHT31;57119;52.516;13.508;2023-03-04T09:41:57;6.85;83.26
69823;SHT31;57119;52.516;13.508;2023-03-04T09:46:51;6.96;84.00
69823;SHT31;57119;52.516;13.508;2023-03-04T09:49:20;6.96;83.70
69823;SHT31;57119;52.516;13.508;2023-03-04T09:52:01;6.87;83.86
69823;SHT31;57119;52.516;13.508;2023-03-04T09:54:57;6.82;84.43
69823;SHT31;57119;52.516;13.508;2023-03-04T09:57:56;6.68;85.48
69823;SHT31;57119;52.516;13.508;2023-03-04T10:00:33;6.73;85.38
69823;SHT31;57119;52.516;13.508;2023-03-04T10:10:59;6.93;82.83
69823;SHT31;57119;52.516;13.508;2023-03-04T10:13:34;6.83;83.23
69823;SHT31;57119;52.516;13.508;2023-03-04T10:16:04;6.85;82.74
69823;SHT31;57119;52.516;13.508;2023-03-04T10:18:36;6.95;81.94
69823;SHT31;57119;52.516;13.508;2023-03-04T10:23:43;7.03;81.51
69823;SHT31;57119;52.516;13.508;2023-03-04T10:26:13;7.20;80.86
69823;SHT31;57119;52.516;13.508;2023-03-04T10:28:39;7.31;80.92
69823;SHT31;57119;52.516;13.508;2023-03-04T10:33:32;7.32;80.33
69823;SHT31;57119;52.516;13.508;2023-03-04T10:36:14;7.41;80.12
69823;SHT31;57119;52.516;13.508;2023-03-04T10:38:43;7.41;80.00
69823;SHT31;57119;52.516;13.508;2023-03-04T10:41:17;7.38;79.56
69823;SHT31;57119;52.516;13.508;2023-03-04T10:43:49;7.36;80.47
69823;SHT31;57119;52.516;13.508;2023-03-04T10:46:14;7.30;80.45
69823;SHT31;57119;52.516;13.508;2023-03-04T10:48:42;7.40;80.35
69823;SHT31;57119;52.516;13.508;2023-03-04T10:53:43;7.36;80.07
69823;SHT31;57119;52.516;13.508;2023-03-04T10:56:35;7.24;80.79
69823;SHT31;57119;52.516;13.508;2023-03-04T11:02:31;7.23;81.65
69823;SHT31;57119;52.516;13.508;2023-03-04T11:05:23;7.24;80.67
69823;SHT31;57119;52.516;13.508;2023-03-04T11:07:58;7.21;80.92
69823;SHT31;57119;52.516;13.508;2023-03-04T11:13:11;7.13;79.41
69823;SHT31;57119;52.516;13.508;2023-03-04T11:15:57;7.10;80.64
69823;SHT31;57119;52.516;13.508;2023-03-04T11:20:55;7.30;79.29
69823;SHT31;57119;52.516;13.508;2023-03-04T11:26:39;7.92;77.64
69823;SHT31;57119;52.516;13.508;2023-03-04T11:37:09;7.48;78.13
69823;SHT31;57119;52.516;13.508;2023-03-04T11:39:51;7.34;77.64
69823;SHT31;57119;52.516;13.508;2023-03-04T11:44:51;7.69;76.50
69823;SHT31;57119;52.516;13.508;2023-03-04T11:50:28;7.69;75.93
69823;SHT31;57119;52.516;13.508;2023-03-04T11:55:50;7.94;75.37
69823;SHT31;57119;52.516;13.508;2023-03-04T12:16:04;7.65;74.37
69823;SHT31;57119;52.516;13.508;2023-03-04T12:26:48;8.03;73.19
69823;SHT31;57119;52.516;13.508;2023-03-04T12:32:20;8.99;70.74
69823;SHT31;57119;52.516;13.508;2023-03-04T12:35:17;8.36;72.28
69823;SHT31;57119;52.516;13.508;2023-03-04T12:38:02;8.19;72.37
69823;SHT31;57119;52.516;13.508;2023-03-04T12:40:42;7.96;72.68
69823;SHT31;57119;52.516;13.508;2023-03-04T12:43:25;7.73;73.32
69823;SHT31;57119;52.516;13.508;2023-03-04T12:46:06;7.71;72.59
69823;SHT31;57119;52.516;13.508;2023-03-04T12:48:40;7.61;73.39
69823;SHT31;57119;52.516;13.508;2023-03-04T12:51:30;7.56;73.28
69823;SHT31;57119;52.516;13.508;2023-03-04T12:56:55;7.21;71.86
69823;SHT31;57119;52.516;13.508;2023-03-04T12:59:23;7.34;71.97
69823;SHT31;57119;52.516;13.508;2023-03-04T13:05:07;7.23;71.65
69823;SHT31;57119;52.516;13.508;2023-03-04T13:10:26;7.40;71.60
69823;SHT31;57119;52.516;13.508;2023-03-04T13:12:58;7.38;70.71
69823;SHT31;57119;52.516;13.508;2023-03-04T13:22:54;7.71;69.60
69823;SHT31;57119;52.516;13.508;2023-03-04T13:25:48;7.86;69.75
69823;SHT31;57119;52.516;13.508;2023-03-04T13:28:21;7.69;69.25
69823;SHT31;57119;52.516;13.508;2023-03-04T13:41:22;7.51;69.87
69823;SHT31;57119;52.516;13.508;2023-03-04T13:44:01;7.43;70.26
69823;SHT31;57119;52.516;13.508;2023-03-04T13:46:29;7.07;70.45
69823;SHT31;57119;52.516;13.508;2023-03-04T13:51:30;7.00;70.86
69823;SHT31;57119;52.516;13.508;2023-03-04T13:56:32;7.00;71.37
69823;SHT31;57119;52.516;13.508;2023-03-04T14:01:49;6.87;72.03
69823;SHT31;57119;52.516;13.508;2023-03-04T14:06:48;6.71;72.16
69823;SHT31;57119;52.516;13.508;2023-03-04T14:09:19;6.68;72.12
69823;SHT31;57119;52.516;13.508;2023-03-04T14:11:47;6.80;71.64
69823;SHT31;57119;52.516;13.508;2023-03-04T14:14:20;6.85;71.00
69823;SHT31;57119;52.516;13.508;2023-03-04T14:16:49;6.83;70.80
69823;SHT31;57119;52.516;13.508;2023-03-04T14:19:31;6.75;71.50
69823;SHT31;57119;52.516;13.508;2023-03-04T14:21:59;6.55;71.86
69823;SHT31;57119;52.516;13.508;2023-03-04T14:24:24;6.66;71.67
69823;SHT31;57119;52.516;13.508;2023-03-04T14:27:05;6.52;72.23
69823;SHT31;57119;52.516;13.508;2023-03-04T14:29:34;6.56;71.71
69823;SHT31;57119;52.516;13.508;2023-03-04T14:31:59;6.64;72.12
69823;SHT31;57119;52.516;13.508;2023-03-04T14:34:35;6.58;72.62
69823;SHT31;57119;52.516;13.508;2023-03-04T14:37:03;6.59;72.48
69823;SHT31;57119;52.516;13.508;2023-03-04T14:39:31;6.34;72.92
69823;SHT31;57119;52.516;13.508;2023-03-04T14:42:11;6.34;73.52
69823;SHT31;57119;52.516;13.508;2023-03-04T14:44:43;6.27;73.92
69823;SHT31;57119;52.516;13.508;2023-03-04T14:47:15;6.20;74.24
69823;SHT31;57119;52.516;13.508;2023-03-04T14:49:42;6.03;75.23
69823;SHT31;57119;52.516;13.508;2023-03-04T14:52:29;5.98;75.52
69823;SHT31;57119;52.516;13.508;2023-03-04T14:55:21;6.01;75.62
69823;SHT31;57119;52.516;13.508;2023-03-04T14:58:19;6.03;75.63
69823;SHT31;57119;52.516;13.508;2023-03-04T15:00:45;6.07;75.39
69823;SHT31;57119;52.516;13.508;2023-03-04T15:03:28;6.00;75.47
69823;SHT31;57119;52.516;13.508;2023-03-04T15:05:53;5.97;75.28
69823;SHT31;57119;52.516;13.508;2023-03-04T15:08:23;6.01;75.52
69823;SHT31;57119;52.516;13.508;2023-03-04T15:11:00;5.98;75.32
69823;SHT31;57119;52.516;13.508;2023-03-04T15:13:50;6.01;75.25
69823;SHT31;57119;52.516;13.508;2023-03-04T15:16:18;6.00;75.37
69823;SHT31;57119;52.516;13.508;2023-03-04T15:23:44;6.07;74.36
69823;SHT31;57119;52.516;13.508;2023-03-04T15:26:11;6.11;74.82
69823;SHT31;57119;52.516;13.508;2023-03-04T15:28:39;6.13;74.32
69823;SHT31;57119;52.516;13.508;2023-03-04T15:31:17;6.18;73.84
69823;SHT31;57119;52.516;13.508;2023-03-04T15:33:43;6.25;73.02
69823;SHT31;57119;52.516;13.508;2023-03-04T15:36:12;6.27;72.36
69823;SHT31;57119;52.516;13.508;2023-03-04T15:38:39;6.37;72.17
69823;SHT31;57119;52.516;13.508;2023-03-04T15:41:05;6.46;72.11
69823;SHT31;57119;52.516;13.508;2023-03-04T15:43:30;6.65;71.78
69823;SHT31;57119;52.516;13.508;2023-03-04T15:45:56;6.86;71.45
69823;SHT31;57119;52.516;13.508;2023-03-04T15:48:21;7.99;68.12
69823;SHT31;57119;52.516;13.508;2023-03-04T15:51:01;8.27;66.93
69823;SHT31;57119;52.516;13.508;2023-03-04T15:53:34;7.86;69.08
69823;SHT31;57119;52.516;13.508;2023-03-04T15:56:02;7.55;68.54
69823;SHT31;57119;52.516;13.508;2023-03-04T15:58:28;7.15;69.56
69823;SHT31;57119;52.516;13.508;2023-03-04T16:00:54;6.82;70.91
69823;SHT31;57119;52.516;13.508;2023-03-04T16:03:20;6.44;71.93
69823;SHT31;57119;52.516;13.508;2023-03-04T16:05:47;6.31;72.20
69823;SHT31;57119;52.516;13.508;2023-03-04T16:08:16;6.07;72.88
69823;SHT31;57119;52.516;13.508;2023-03-04T16:10:43;5.97;73.38
69823;SHT31;57119;52.516;13.508;2023-03-04T16:13:13;5.98;73.52
69823;SHT31;57119;52.516;13.508;2023-03-04T16:15:39;5.90;73.69
69823;SHT31;57119;52.516;13.508;2023-03-04T16:18:05;5.80;74.24
69823;SHT31;57119;52.516;13.508;2023-03-04T16:20:32;5.74;74.18
69823;SHT31;57119;52.516;13.508;2023-03-04T16:22:59;5.69;74.12
69823;SHT31;57119;52.516;13.508;2023-03-04T16:25:25;5.63;74.18
69823;SHT31;57119;52.516;13.508;2023-03-04T16:27:52;5.55;74.32
69823;SHT31;57119;52.516;13.508;2023-03-04T16:30:20;5.49;74.56
69823;SHT31;57119;52.516;13.508;2023-03-04T16:32:46;5.48;74.38
69823;SHT31;57119;52.516;13.508;2023-03-04T16:35:13;5.50;74.49
69823;SHT31;57119;52.516;13.508;2023-03-04T16:37:39;5.49;74.44
69823;SHT31;57119;52.516;13.508;2023-03-04T16:40:06;5.45;74.39
69823;SHT31;57119;52.516;13.508;2023-03-04T16:42:33;5.43;74.37
69823;SHT31;57119;52.516;13.508;2023-03-04T16:44:58;5.42;74.37
69823;SHT31;57119;52.516;13.508;2023-03-04T16:47:24;5.41;74.54
69823;SHT31;57119;52.516;13.508;2023-03-04T16:49:49;5.38;74.68
69823;SHT31;57119;52.516;13.508;2023-03-04T16:52:30;5.36;74.81
69823;SHT31;57119;52.516;13.508;2023-03-04T16:54:57;5.32;74.26
69823;SHT31;57119;52.516;13.508;2023-03-04T16:57:22;5.31;74.23
69823;SHT31;57119;52.516;13.508;2023-03-04T16:59:48;5.28;74.43
69823;SHT31;57119;52.516;13.508;2023-03-04T17:02:19;5.29;74.44
69823;SHT31;57119;52.516;13.508;2023-03-04T17:04:46;5.25;74.34
69823;SHT31;57119;52.516;13.508;2023-03-04T17:07:15;5.24;74.58
69823;SHT31;57119;52.516;13.508;2023-03-04T17:09:40;5.22;74.76
69823;SHT31;57119;52.516;13.508;2023-03-04T17:12:08;5.20;74.50
69823;SHT31;57119;52.516;13.508;2023-03-04T17:14:34;5.21;74.73
69823;SHT31;57119;52.516;13.508;2023-03-04T17:17:06;5.17;74.87
69823;SHT31;57119;52.516;13.508;2023-03-04T17:19:32;5.14;75.11
69823;SHT31;57119;52.516;13.508;2023-03-04T17:22:01;5.12;75.02
69823;SHT31;57119;52.516;13.508;2023-03-04T17:24:28;5.15;75.08
69823;SHT31;57119;52.516;13.508;2023-03-04T17:26:53;5.18;75.14
69823;SHT31;57119;52.516;13.508;2023-03-04T17:29:19;5.12;75.25
69823;SHT31;57119;52.516;13.508;2023-03-04T17:31:44;5.11;75.62
69823;SHT31;57119;52.516;13.508;2023-03-04T17:34:09;5.14;75.26
69823;SHT31;57119;52.516;13.508;2023-03-04T17:36:35;5.07;75.58
69823;SHT31;57119;52.516;13.508;2023-03-04T17:39:01;5.12;75.39
69823;SHT31;57119;52.516;13.508;2023-03-04T17:41:26;5.07;75.87
69823;SHT31;57119;52.516;13.508;2023-03-04T17:43:52;5.08;75.47
69823;SHT31;57119;52.516;13.508;2023-03-04T17:46:25;5.08;75.71
69823;SHT31;57119;52.516;13.508;2023-03-04T17:48:56;5.08;75.97
69823;SHT31;57119;52.516;13.508;2023-03-04T17:53:54;5.10;75.91
69823;SHT31;57119;52.516;13.508;2023-03-04T17:56:19;5.10;75.89
69823;SHT31;57119;52.516;13.508;2023-03-04T17:58:46;5.05;75.85
69823;SHT31;57119;52.516;13.508;2023-03-04T18:01:17;5.05;76.20
69823;SHT31;57119;52.516;13.508;2023-03-04T18:03:43;5.02;76.01
69823;SHT31;57119;52.516;13.508;2023-03-04T18:06:09;5.04;76.20
69823;SHT31;57119;52.516;13.508;2023-03-04T18:08:34;4.98;76.42
69823;SHT31;57119;52.516;13.508;2023-03-04T18:10:59;5.00;76.71
69823;SHT31;57119;52.516;13.508;2023-03-04T18:13:25;5.02;76.29
69823;SHT31;57119;52.516;13.508;2023-03-04T18:15:50;5.04;76.68
69823;SHT31;57119;52.516;13.508;2023-03-04T18:18:16;5.05;76.29
69823;SHT31;57119;52.516;13.508;2023-03-04T18:20:41;4.98;76.83
69823;SHT31;57119;52.516;13.508;2023-03-04T18:23:07;4.98;76.66
69823;SHT31;57119;52.516;13.508;2023-03-04T18:25:32;4.98;76.81
69823;SHT31;57119;52.516;13.508;2023-03-04T18:27:57;4.97;77.07
69823;SHT31;57119;52.516;13.508;2023-03-04T18:30:23;4.97;77.00
69823;SHT31;57119;52.516;13.508;2023-03-04T18:32:52;4.97;76.94
69823;SHT31;57119;52.516;13.508;2023-03-04T18:35:19;5.01;76.65
69823;SHT31;57119;52.516;13.508;2023-03-04T18:37:45;4.97;76.78
69823;SHT31;57119;52.516;13.508;2023-03-04T18:40:11;4.97;76.86
69823;SHT31;57119;52.516;13.508;2023-03-04T18:42:37;4.94;77.11
69823;SHT31;57119;52.516;13.508;2023-03-04T18:45:04;4.90;77.10
69823;SHT31;57119;52.516;13.508;2023-03-04T18:47:30;4.85;77.43
69823;SHT31;57119;52.516;13.508;2023-03-04T18:49:56;4.84;77.70
69823;SHT31;57119;52.516;13.508;2023-03-04T18:52:22;4.87;77.42
69823;SHT31;57119;52.516;13.508;2023-03-04T18:54:47;4.90;77.41
69823;SHT31;57119;52.516;13.508;2023-03-04T18:57:13;4.84;77.51
69823;SHT31;57119;52.516;13.508;2023-03-04T18:59:46;4.81;77.51
69823;SHT31;57119;52.516;13.508;2023-03-04T19:02:20;4.81;77.99
69823;SHT31;57119;52.516;13.508;2023-03-04T19:04:48;4.83;77.75
69823;SHT31;57119;52.516;13.508;2023-03-04T19:07:14;4.81;78.01
69823;SHT31;57119;52.516;13.508;2023-03-04T19:09:39;4.87;78.07
69823;SHT31;57119;52.516;13.508;2023-03-04T19:12:05;4.79;78.46
69823;SHT31;57119;52.516;13.508;2023-03-04T19:14:31;4.74;78.54
69823;SHT31;57119;52.516;13.508;2023-03-04T19:16:56;4.70;78.78
69823;SHT31;57119;52.516;13.508;2023-03-04T19:19:22;4.77;78.75
69823;SHT31;57119;52.516;13.508;2023-03-04T19:21:47;4.70;78.95
69823;SHT31;57119;52.516;13.508;2023-03-04T19:24:12;4.67;79.09
69823;SHT31;57119;52.516;13.508;2023-03-04T19:26:38;4.73;78.86
69823;SHT31;57119;52.516;13.508;2023-03-04T19:29:07;4.74;79.07
69823;SHT31;57119;52.516;13.508;2023-03-04T19:31:32;4.64;78.94
69823;SHT31;57119;52.516;13.508;2023-03-04T19:33:58;4.66;79.11
69823;SHT31;57119;52.516;13.508;2023-03-04T19:36:24;4.67;79.48
69823;SHT31;57119;52.516;13.508;2023-03-04T19:38:50;4.63;79.58
69823;SHT31;57119;52.516;13.508;2023-03-04T19:41:16;4.59;79.72
69823;SHT31;57119;52.516;13.508;2023-03-04T19:43:43;4.57;79.75
69823;SHT31;57119;52.516;13.508;2023-03-04T19:46:10;4.56;80.16
69823;SHT31;57119;52.516;13.508;2023-03-04T19:48:37;4.50;80.53
69823;SHT31;57119;52.516;13.508;2023-03-04T19:51:03;4.54;80.52
69823;SHT31;57119;52.516;13.508;2023-03-04T19:53:31;4.59;80.62
69823;SHT31;57119;52.516;13.508;2023-03-04T19:55:57;4.49;81.13
69823;SHT31;57119;52.516;13.508;2023-03-04T19:58:22;4.46;81.43
69823;SHT31;57119;52.516;13.508;2023-03-04T20:00:48;4.38;81.80
69823;SHT31;57119;52.516;13.508;2023-03-04T20:03:14;4.32;82.22
69823;SHT31;57119;52.516;13.508;2023-03-04T20:05:40;4.29;82.96
69823;SHT31;57119;52.516;13.508;2023-03-04T20:08:05;4.28;83.08
69823;SHT31;57119;52.516;13.508;2023-03-04T20:10:32;4.14;83.44
69823;SHT31;57119;52.516;13.508;2023-03-04T20:13:01;4.09;83.55
69823;SHT31;57119;52.516;13.508;2023-03-04T20:15:26;4.14;83.28
69823;SHT31;57119;52.516;13.508;2023-03-04T20:17:52;4.14;83.63
69823;SHT31;57119;52.516;13.508;2023-03-04T20:20:17;4.21;83.24
69823;SHT31;57119;52.516;13.508;2023-03-04T20:22:42;4.22;83.08
69823;SHT31;57119;52.516;13.508;2023-03-04T20:25:08;4.18;82.43
69823;SHT31;57119;52.516;13.508;2023-03-04T20:27:33;4.09;81.73
69823;SHT31;57119;52.516;13.508;2023-03-04T20:29:59;4.14;81.83
69823;SHT31;57119;52.516;13.508;2023-03-04T20:32:24;4.19;81.72
69823;SHT31;57119;52.516;13.508;2023-03-04T20:34:49;4.15;80.34
69823;SHT31;57119;52.516;13.508;2023-03-04T20:37:19;4.16;80.53
69823;SHT31;57119;52.516;13.508;2023-03-04T20:39:44;4.08;80.79
69823;SHT31;57119;52.516;13.508;2023-03-04T20:42:11;4.09;80.57
69823;SHT31;57119;52.516;13.508;2023-03-04T20:44:36;4.08;79.48
69823;SHT31;57119;52.516;13.508;2023-03-04T20:47:01;4.06;80.20
69823;SHT31;57119;52.516;13.508;2023-03-04T20:49:27;4.05;80.26
69823;SHT31;57119;52.516;13.508;2023-03-04T20:51:55;4.04;78.30
69823;SHT31;57119;52.516;13.508;2023-03-04T20:54:22;4.04;77.50
69823;SHT31;57119;52.516;13.508;2023-03-04T20:56:47;4.09;77.11
69823;SHT31;57119;52.516;13.508;2023-03-04T20:59:13;4.05;75.58
69823;SHT31;57119;52.516;13.508;2023-03-04T21:01:40;3.88;75.94
69823;SHT31;57119;52.516;13.508;2023-03-04T21:04:06;3.84;76.19
69823;SHT31;57119;52.516;13.508;2023-03-04T21:06:32;3.73;76.23
69823;SHT31;57119;52.516;13.508;2023-03-04T21:09:10;3.73;76.41
69823;SHT31;57119;52.516;13.508;2023-03-04T21:11:37;3.78;76.73
69823;SHT31;57119;52.516;13.508;2023-03-04T21:14:27;3.75;76.59
69823;SHT31;57119;52.516;13.508;2023-03-04T21:16:55;3.84;76.55
69823;SHT31;57119;52.516;13.508;2023-03-04T21:19:24;3.75;76.73
69823;SHT31;57119;52.516;13.508;2023-03-04T21:21:50;3.69;77.20
69823;SHT31;57119;52.516;13.508;2023-03-04T21:24:18;3.71;76.92
69823;SHT31;57119;52.516;13.508;2023-03-04T21:26:44;3.56;77.62
69823;SHT31;57119;52.516;13.508;2023-03-04T21:29:15;3.50;77.80
69823;SHT31;57119;52.516;13.508;2023-03-04T21:31:43;3.39;77.80
69823;SHT31;57119;52.516;13.508;2023-03-04T21:34:19;3.29;78.30
69823;SHT31;57119;52.516;13.508;2023-03-04T21:36:45;3.22;78.44
69823;SHT31;57119;52.516;13.508;2023-03-04T21:39:14;3.11;78.53
69823;SHT31;57119;52.516;13.508;2023-03-04T21:41:40;3.04;78.36
69823;SHT31;57119;52.516;13.508;2023-03-04T21:44:06;3.08;79.58
69823;SHT31;57119;52.516;13.508;2023-03-04T21:46:31;3.04;79.51
69823;SHT31;57119;52.516;13.508;2023-03-04T21:48:57;3.15;80.65
69823;SHT31;57119;52.516;13.508;2023-03-04T21:51:22;3.11;80.58
69823;SHT31;57119;52.516;13.508;2023-03-04T21:53:48;3.12;80.83
69823;SHT31;57119;52.516;13.508;2023-03-04T21:56:14;3.22;79.16
69823;SHT31;57119;52.516;13.508;2023-03-04T21:58:40;3.22;79.27
69823;SHT31;57119;52.516;13.508;2023-03-04T22:01:24;3.19;80.11
69823;SHT31;57119;52.516;13.508;2023-03-04T22:03:49;3.32;78.27
69823;SHT31;57119;52.516;13.508;2023-03-04T22:06:16;3.39;77.95
69823;SHT31;57119;52.516;13.508;2023-03-04T22:08:48;3.44;76.66
69823;SHT31;57119;52.516;13.508;2023-03-04T22:11:14;3.47;76.52
69823;SHT31;57119;52.516;13.508;2023-03-04T22:13:40;3.49;76.35
69823;SHT31;57119;52.516;13.508;2023-03-04T22:16:05;3.50;76.44
69823;SHT31;57119;52.516;13.508;2023-03-04T22:18:31;3.53;75.98
69823;SHT31;57119;52.516;13.508;2023-03-04T22:21:01;3.54;75.36
69823;SHT31;57119;52.516;13.508;2023-03-04T22:23:27;3.57;74.89
69823;SHT31;57119;52.516;13.508;2023-03-04T22:25:52;3.59;74.75
69823;SHT31;57119;52.516;13.508;2023-03-04T22:28:18;3.60;75.22
69823;SHT31;57119;52.516;13.508;2023-03-04T22:30:43;3.62;75.12
69823;SHT31;57119;52.516;13.508;2023-03-04T22:33:08;3.59;75.21
69823;SHT31;57119;52.516;13.508;2023-03-04T22:35:38;3.62;75.41
69823;SHT31;57119;52.516;13.508;2023-03-04T22:38:04;3.70;75.46
69823;SHT31;57119;52.516;13.508;2023-03-04T22:40:31;3.71;76.07
69823;SHT31;57119;52.516;13.508;2023-03-04T22:42:57;3.71;76.68
69823;SHT31;57119;52.516;13.508;2023-03-04T22:45:22;3.73;77.22
69823;SHT31;57119;52.516;13.508;2023-03-04T22:47:51;3.73;78.02
69823;SHT31;57119;52.516;13.508;2023-03-04T22:50:18;3.75;77.93
69823;SHT31;57119;52.516;13.508;2023-03-04T22:52:44;3.74;78.16
69823;SHT31;57119;52.516;13.508;2023-03-04T22:55:12;3.74;78.51
69823;SHT31;57119;52.516;13.508;2023-03-04T22:57:38;3.75;78.54
69823;SHT31;57119;52.516;13.508;2023-03-04T23:00:14;3.71;79.11
69823;SHT31;57119;52.516;13.508;2023-03-04T23:02:40;3.74;79.49
69823;SHT31;57119;52.516;13.508;2023-03-04T23:05:06;3.77;79.80
69823;SHT31;57119;52.516;13.508;2023-03-04T23:07:34;3.77;80.40
69823;SHT31;57119;52.516;13.508;2023-03-04T23:10:00;3.70;80.81
69823;SHT31;57119;52.516;13.508;2023-03-04T23:12:25;3.74;81.24
69823;SHT31;57119;52.516;13.508;2023-03-04T23:14:50;3.73;81.45
69823;SHT31;57119;52.516;13.508;2023-03-04T23:17:16;3.73;81.35
69823;SHT31;57119;52.516;13.508;2023-03-04T23:19:41;3.66;81.79
69823;SHT31;57119;52.516;13.508;2023-03-04T23:22:06;3.71;81.57
69823;SHT31;57119;52.516;13.508;2023-03-04T23:24:32;3.69;81.20
69823;SHT31;57119;52.516;13.508;2023-03-04T23:26:57;3.69;81.33
69823;SHT31;57119;52.516;13.508;2023-03-04T23:29:23;3.67;81.05
69823;SHT31;57119;52.516;13.508;2023-03-04T23:31:49;3.67;81.06
69823;SHT31;57119;52.516;13.508;2023-03-04T23:34:14;3.67;81.14
69823;SHT31;57119;52.516;13.508;2023-03-04T23:36:40;3.66;81.50
69823;SHT31;57119;52.516;13.508;2023-03-04T23:39:06;3.66;81.03
69823;SHT31;57119;52.516;13.508;2023-03-04T23:41:32;3.70;80.92
69823;SHT31;57119;52.516;13.508;2023-03-04T23:43:59;3.71;81.36
69823;SHT31;57119;52.516;13.508;2023-03-04T23:46:26;3.67;81.80
69823;SHT31;57119;52.516;13.508;2023-03-04T23:48:52;3.66;82.19
69823;SHT31;57119;52.516;13.508;2023-03-04T23:51:20;3.67;82.70
69823;SHT31;57119;52.516;13.508;2023-03-04T23:53:46;3.66;83.01
69823;SHT31;57119;52.516;13.508;2023-03-04T23:56:17;3.69;83.44
69823;SHT31;57119;52.516;13.508;2023-03-04T23:58:43;3.64;84.15
